CheckWX is a tool to help pilots better visualize weather data.  It is not intended as a substitute for an official pre-flight weather briefing.

18:03:02 UTC

KILN TAF
Wilmington Airpark
Wilmington, Ohio, USA
KILN 171736Z 1718/1818 12008KT P6SM RA OVC015 TEMPO 1718/1720 4SM -FZRA OVC008 FM172000 08005KT 4SM -RA BR OVC008 FM172200 09004KT 5SM BR VCSH OVC005 FM180100 28006KT P6SM OVC005 FM181500 30010KT P6SM OVC012

Feb-17@
18:00 UTC

Feb-17 @ 18:00 UTC

Feb-17@
20:00 UTC

Feb-17 @ 20:00 UTC

KILN 171736Z 1718/1818 12008KT P6SM RA OVC015
Wind
  • 120° at 8 KTS
Visibility
Greater than 6 SM
Conditions
Rain
Cloud Levels
  • Overcast at 1,500' AGL

Feb-17@
18:00 UTC

Feb-17 @ 18:00 UTC

Feb-17@
20:00 UTC

Feb-17 @ 20:00 UTC

TEMPO 1718/1720 4SM -FZRA OVC008

Temporary

TemporaryChanges expected for less than half the time period

Visibility
4 SM
Conditions
Light Freezing Light Rain
Cloud Levels
  • Overcast at 800' AGL

Feb-17@
20:00 UTC

Feb-17 @ 20:00 UTC

Feb-17@
22:00 UTC

Feb-17 @ 22:00 UTC

FM172000 08005KT 4SM -RA BR OVC008

From

FromStandard forecast or significant change

Wind
  • 080° at 5 KTS
Visibility
4 SM
Conditions
Light Rain, Mist
Cloud Levels
  • Overcast at 800' AGL

Feb-17@
22:00 UTC

Feb-17 @ 22:00 UTC

Feb-18@
01:00 UTC

Feb-18 @ 01:00 UTC

FM172200 09004KT 5SM BR VCSH OVC005

From

FromStandard forecast or significant change

Wind
  • 090° at 4 KTS
Visibility
5 SM
Conditions
Mist
Cloud Levels
  • Overcast at 500' AGL

Feb-18@
01:00 UTC

Feb-18 @ 01:00 UTC

Feb-18@
15:00 UTC

Feb-18 @ 15:00 UTC

FM180100 28006KT P6SM OVC005

From

FromStandard forecast or significant change

Wind
  • 280° at 6 KTS
Visibility
Greater than 6 SM
Cloud Levels
  • Overcast at 500' AGL

Feb-18@
15:00 UTC

Feb-18 @ 15:00 UTC

Feb-18@
18:00 UTC

Feb-18 @ 18:00 UTC

FM181500 30010KT P6SM OVC012

From

FromStandard forecast or significant change

Wind
  • 300° at 10 KTS
Visibility
Greater than 6 SM
Cloud Levels
  • Overcast at 1,200' AGL